sensor_id;sensor_type;location;lat;lon;timestamp;P1;durP1;ratioP1;P2;durP2;ratioP2
46845;SDS011;33947;46.804;134.252;2022-10-16T00:01:08;30.77;;;19.98;;
46845;SDS011;33947;46.804;134.252;2022-10-16T00:04:14;33.83;;;21.20;;
46845;SDS011;33947;46.804;134.252;2022-10-16T00:07:19;34.75;;;20.75;;
46845;SDS011;33947;46.804;134.252;2022-10-16T00:10:23;42.33;;;21.35;;
46845;SDS011;33947;46.804;134.252;2022-10-16T00:13:29;32.78;;;20.38;;
46845;SDS011;33947;46.804;134.252;2022-10-16T00:16:34;38.92;;;22.38;;
46845;SDS011;33947;46.804;134.252;2022-10-16T00:19:39;40.30;;;22.60;;
46845;SDS011;33947;46.804;134.252;2022-10-16T00:23:03;46.15;;;25.45;;
46845;SDS011;33947;46.804;134.252;2022-10-16T00:26:09;62.20;;;34.97;;
46845;SDS011;33947;46.804;134.252;2022-10-16T00:29:16;80.75;;;43.53;;
46845;SDS011;33947;46.804;134.252;2022-10-16T00:32:21;65.82;;;38.20;;
46845;SDS011;33947;46.804;134.252;2022-10-16T00:35:26;61.43;;;35.90;;
46845;SDS011;33947;46.804;134.252;2022-10-16T00:38:31;51.67;;;33.05;;
46845;SDS011;33947;46.804;134.252;2022-10-16T00:41:35;51.50;;;31.25;;
46845;SDS011;33947;46.804;134.252;2022-10-16T00:44:45;54.13;;;30.58;;
46845;SDS011;33947;46.804;134.252;2022-10-16T00:47:54;47.17;;;27.40;;
46845;SDS011;33947;46.804;134.252;2022-10-16T00:54:07;41.78;;;24.95;;
46845;SDS011;33947;46.804;134.252;2022-10-16T00:57:24;41.40;;;24.35;;
46845;SDS011;33947;46.804;134.252;2022-10-16T01:00:29;39.45;;;22.38;;
46845;SDS011;33947;46.804;134.252;2022-10-16T01:03:34;40.90;;;23.92;;
46845;SDS011;33947;46.804;134.252;2022-10-16T01:13:32;41.53;;;23.83;;
46845;SDS011;33947;46.804;134.252;2022-10-16T01:17:02;46.33;;;28.38;;
46845;SDS011;33947;46.804;134.252;2022-10-16T01:20:16;41.25;;;25.50;;
46845;SDS011;33947;46.804;134.252;2022-10-16T01:30:25;52.40;;;29.15;;
46845;SDS011;33947;46.804;134.252;2022-10-16T01:33:35;39.90;;;25.88;;
46845;SDS011;33947;46.804;134.252;2022-10-16T01:36:47;41.15;;;25.27;;
46845;SDS011;33947;46.804;134.252;2022-10-16T01:40:00;38.40;;;22.58;;
46845;SDS011;33947;46.804;134.252;2022-10-16T01:43:14;37.40;;;23.77;;
46845;SDS011;33947;46.804;134.252;2022-10-16T01:46:22;59.45;;;34.28;;
46845;SDS011;33947;46.804;134.252;2022-10-16T01:49:32;90.35;;;45.58;;
46845;SDS011;33947;46.804;134.252;2022-10-16T01:52:40;34.53;;;22.38;;
46845;SDS011;33947;46.804;134.252;2022-10-16T01:55:48;40.50;;;24.63;;
46845;SDS011;33947;46.804;134.252;2022-10-16T01:59:18;38.00;;;23.08;;
46845;SDS011;33947;46.804;134.252;2022-10-16T02:02:26;39.72;;;21.77;;
46845;SDS011;33947;46.804;134.252;2022-10-16T02:05:39;44.72;;;24.10;;
46845;SDS011;33947;46.804;134.252;2022-10-16T02:08:48;42.47;;;23.25;;
46845;SDS011;33947;46.804;134.252;2022-10-16T02:11:53;36.90;;;22.27;;
46845;SDS011;33947;46.804;134.252;2022-10-16T02:15:01;35.25;;;20.67;;
46845;SDS011;33947;46.804;134.252;2022-10-16T02:18:06;32.42;;;21.80;;
46845;SDS011;33947;46.804;134.252;2022-10-16T02:21:58;37.63;;;21.67;;
46845;SDS011;33947;46.804;134.252;2022-10-16T02:28:08;30.20;;;18.52;;
46845;SDS011;33947;46.804;134.252;2022-10-16T02:31:23;28.58;;;17.90;;
46845;SDS011;33947;46.804;134.252;2022-10-16T02:34:32;30.85;;;17.13;;
46845;SDS011;33947;46.804;134.252;2022-10-16T02:37:38;27.52;;;17.58;;
46845;SDS011;33947;46.804;134.252;2022-10-16T02:40:44;29.27;;;15.95;;
46845;SDS011;33947;46.804;134.252;2022-10-16T02:43:49;28.60;;;16.40;;
46845;SDS011;33947;46.804;134.252;2022-10-16T02:46:55;22.80;;;13.35;;
46845;SDS011;33947;46.804;134.252;2022-10-16T02:49:59;20.02;;;11.93;;
46845;SDS011;33947;46.804;134.252;2022-10-16T02:53:05;17.73;;;12.05;;
46845;SDS011;33947;46.804;134.252;2022-10-16T02:56:10;15.15;;;9.38;;
46845;SDS011;33947;46.804;134.252;2022-10-16T02:59:15;13.77;;;8.70;;
46845;SDS011;33947;46.804;134.252;2022-10-16T03:02:20;12.98;;;8.57;;
46845;SDS011;33947;46.804;134.252;2022-10-16T03:05:24;14.02;;;7.40;;
46845;SDS011;33947;46.804;134.252;2022-10-16T03:08:29;13.50;;;7.10;;
46845;SDS011;33947;46.804;134.252;2022-10-16T03:11:33;9.88;;;6.57;;
46845;SDS011;33947;46.804;134.252;2022-10-16T03:14:38;10.13;;;6.20;;
46845;SDS011;33947;46.804;134.252;2022-10-16T03:17:43;11.68;;;5.18;;
46845;SDS011;33947;46.804;134.252;2022-10-16T03:20:48;10.20;;;5.82;;
46845;SDS011;33947;46.804;134.252;2022-10-16T03:23:52;6.13;;;4.43;;
46845;SDS011;33947;46.804;134.252;2022-10-16T03:26:56;10.77;;;5.32;;
46845;SDS011;33947;46.804;134.252;2022-10-16T03:30:01;12.55;;;4.65;;
46845;SDS011;33947;46.804;134.252;2022-10-16T03:33:05;4.77;;;2.90;;
46845;SDS011;33947;46.804;134.252;2022-10-16T03:36:10;8.13;;;3.70;;
46845;SDS011;33947;46.804;134.252;2022-10-16T03:39:14;4.88;;;3.20;;
46845;SDS011;33947;46.804;134.252;2022-10-16T03:42:19;5.80;;;2.92;;
46845;SDS011;33947;46.804;134.252;2022-10-16T03:45:24;6.97;;;2.97;;
46845;SDS011;33947;46.804;134.252;2022-10-16T03:48:29;7.43;;;3.20;;
46845;SDS011;33947;46.804;134.252;2022-10-16T03:51:35;6.60;;;3.17;;
46845;SDS011;33947;46.804;134.252;2022-10-16T03:54:40;8.43;;;3.58;;
46845;SDS011;33947;46.804;134.252;2022-10-16T03:57:44;4.85;;;3.13;;
46845;SDS011;33947;46.804;134.252;2022-10-16T04:00:49;7.68;;;2.90;;
46845;SDS011;33947;46.804;134.252;2022-10-16T04:03:54;6.30;;;3.30;;
46845;SDS011;33947;46.804;134.252;2022-10-16T04:06:58;6.63;;;3.23;;
46845;SDS011;33947;46.804;134.252;2022-10-16T04:10:03;5.83;;;2.70;;
46845;SDS011;33947;46.804;134.252;2022-10-16T04:13:08;4.97;;;3.03;;
46845;SDS011;33947;46.804;134.252;2022-10-16T04:16:13;8.37;;;3.87;;
46845;SDS011;33947;46.804;134.252;2022-10-16T04:19:18;5.90;;;3.70;;
46845;SDS011;33947;46.804;134.252;2022-10-16T04:22:22;6.43;;;2.60;;
46845;SDS011;33947;46.804;134.252;2022-10-16T04:25:32;5.88;;;2.72;;
46845;SDS011;33947;46.804;134.252;2022-10-16T04:28:36;4.70;;;2.97;;
46845;SDS011;33947;46.804;134.252;2022-10-16T04:31:41;10.30;;;3.00;;
46845;SDS011;33947;46.804;134.252;2022-10-16T04:34:45;2.83;;;2.13;;
46845;SDS011;33947;46.804;134.252;2022-10-16T04:37:50;4.65;;;2.17;;
46845;SDS011;33947;46.804;134.252;2022-10-16T04:40:56;6.13;;;2.60;;
46845;SDS011;33947;46.804;134.252;2022-10-16T04:44:00;11.50;;;2.33;;
46845;SDS011;33947;46.804;134.252;2022-10-16T04:47:05;4.07;;;2.20;;
46845;SDS011;33947;46.804;134.252;2022-10-16T04:50:10;5.25;;;2.30;;
46845;SDS011;33947;46.804;134.252;2022-10-16T04:53:14;3.57;;;2.17;;
46845;SDS011;33947;46.804;134.252;2022-10-16T04:56:18;5.30;;;2.20;;
46845;SDS011;33947;46.804;134.252;2022-10-16T04:59:24;6.05;;;2.00;;
46845;SDS011;33947;46.804;134.252;2022-10-16T05:02:28;5.97;;;3.65;;
46845;SDS011;33947;46.804;134.252;2022-10-16T05:05:33;4.63;;;2.75;;
46845;SDS011;33947;46.804;134.252;2022-10-16T05:08:38;5.20;;;2.03;;
46845;SDS011;33947;46.804;134.252;2022-10-16T05:11:42;6.88;;;2.00;;
46845;SDS011;33947;46.804;134.252;2022-10-16T05:14:47;4.50;;;2.67;;
46845;SDS011;33947;46.804;134.252;2022-10-16T05:17:52;5.07;;;3.63;;
46845;SDS011;33947;46.804;134.252;2022-10-16T05:21:00;8.25;;;4.25;;
46845;SDS011;33947;46.804;134.252;2022-10-16T05:24:04;4.77;;;2.83;;
46845;SDS011;33947;46.804;134.252;2022-10-16T05:27:09;5.18;;;2.88;;
46845;SDS011;33947;46.804;134.252;2022-10-16T05:30:25;3.75;;;2.10;;
46845;SDS011;33947;46.804;134.252;2022-10-16T05:33:32;3.45;;;2.00;;
46845;SDS011;33947;46.804;134.252;2022-10-16T05:36:36;5.97;;;2.47;;
46845;SDS011;33947;46.804;134.252;2022-10-16T05:39:41;6.65;;;2.30;;
46845;SDS011;33947;46.804;134.252;2022-10-16T05:42:45;4.03;;;1.85;;
46845;SDS011;33947;46.804;134.252;2022-10-16T05:46:08;5.70;;;2.53;;
46845;SDS011;33947;46.804;134.252;2022-10-16T05:49:12;3.20;;;2.00;;
46845;SDS011;33947;46.804;134.252;2022-10-16T05:52:17;5.78;;;2.58;;
46845;SDS011;33947;46.804;134.252;2022-10-16T05:55:21;8.75;;;3.80;;
46845;SDS011;33947;46.804;134.252;2022-10-16T05:58:31;4.15;;;2.92;;
46845;SDS011;33947;46.804;134.252;2022-10-16T06:01:37;4.63;;;2.33;;
46845;SDS011;33947;46.804;134.252;2022-10-16T06:04:41;4.40;;;2.30;;
46845;SDS011;33947;46.804;134.252;2022-10-16T06:07:46;6.28;;;2.70;;
46845;SDS011;33947;46.804;134.252;2022-10-16T06:11:00;7.82;;;3.40;;
46845;SDS011;33947;46.804;134.252;2022-10-16T06:14:07;13.82;;;5.88;;
46845;SDS011;33947;46.804;134.252;2022-10-16T06:17:13;7.78;;;3.60;;
46845;SDS011;33947;46.804;134.252;2022-10-16T06:20:18;7.25;;;3.15;;
46845;SDS011;33947;46.804;134.252;2022-10-16T06:23:23;16.05;;;4.43;;
46845;SDS011;33947;46.804;134.252;2022-10-16T06:26:29;5.28;;;2.58;;
46845;SDS011;33947;46.804;134.252;2022-10-16T06:29:34;8.50;;;2.80;;
46845;SDS011;33947;46.804;134.252;2022-10-16T06:32:39;10.15;;;4.43;;
46845;SDS011;33947;46.804;134.252;2022-10-16T06:35:43;4.20;;;2.50;;
46845;SDS011;33947;46.804;134.252;2022-10-16T06:38:48;9.15;;;3.75;;
46845;SDS011;33947;46.804;134.252;2022-10-16T06:41:52;4.53;;;2.30;;
46845;SDS011;33947;46.804;134.252;2022-10-16T06:45:00;4.78;;;2.38;;
46845;SDS011;33947;46.804;134.252;2022-10-16T06:48:05;5.30;;;2.58;;
46845;SDS011;33947;46.804;134.252;2022-10-16T06:51:18;10.00;;;2.15;;
46845;SDS011;33947;46.804;134.252;2022-10-16T06:54:24;6.38;;;2.63;;
46845;SDS011;33947;46.804;134.252;2022-10-16T06:57:29;12.88;;;3.90;;
46845;SDS011;33947;46.804;134.252;2022-10-16T07:00:33;8.73;;;3.22;;
46845;SDS011;33947;46.804;134.252;2022-10-16T07:03:39;3.75;;;2.70;;
46845;SDS011;33947;46.804;134.252;2022-10-16T07:06:45;4.20;;;2.13;;
46845;SDS011;33947;46.804;134.252;2022-10-16T07:09:49;9.10;;;3.40;;
46845;SDS011;33947;46.804;134.252;2022-10-16T07:12:54;5.60;;;3.17;;
46845;SDS011;33947;46.804;134.252;2022-10-16T07:16:03;8.18;;;2.90;;
46845;SDS011;33947;46.804;134.252;2022-10-16T07:19:12;5.82;;;2.55;;
46845;SDS011;33947;46.804;134.252;2022-10-16T07:22:18;5.53;;;2.40;;
46845;SDS011;33947;46.804;134.252;2022-10-16T07:25:23;7.00;;;2.95;;
46845;SDS011;33947;46.804;134.252;2022-10-16T07:28:27;8.63;;;3.40;;
46845;SDS011;33947;46.804;134.252;2022-10-16T07:31:32;9.50;;;3.08;;
46845;SDS011;33947;46.804;134.252;2022-10-16T07:34:37;8.25;;;2.80;;
46845;SDS011;33947;46.804;134.252;2022-10-16T07:37:45;7.50;;;3.20;;
46845;SDS011;33947;46.804;134.252;2022-10-16T07:40:57;12.73;;;3.22;;
46845;SDS011;33947;46.804;134.252;2022-10-16T07:44:02;6.35;;;3.45;;
46845;SDS011;33947;46.804;134.252;2022-10-16T07:47:07;6.53;;;3.33;;
46845;SDS011;33947;46.804;134.252;2022-10-16T07:50:12;8.80;;;2.88;;
46845;SDS011;33947;46.804;134.252;2022-10-16T07:53:16;8.98;;;3.00;;
46845;SDS011;33947;46.804;134.252;2022-10-16T07:56:24;8.23;;;3.00;;
46845;SDS011;33947;46.804;134.252;2022-10-16T07:59:30;7.18;;;4.03;;
46845;SDS011;33947;46.804;134.252;2022-10-16T08:05:40;6.37;;;3.00;;
46845;SDS011;33947;46.804;134.252;2022-10-16T08:08:44;6.80;;;2.83;;
46845;SDS011;33947;46.804;134.252;2022-10-16T08:11:49;8.98;;;3.38;;
46845;SDS011;33947;46.804;134.252;2022-10-16T08:14:55;8.80;;;2.97;;
46845;SDS011;33947;46.804;134.252;2022-10-16T08:18:00;5.28;;;2.80;;
46845;SDS011;33947;46.804;134.252;2022-10-16T08:21:07;10.30;;;3.00;;
46845;SDS011;33947;46.804;134.252;2022-10-16T08:27:31;6.57;;;3.20;;
46845;SDS011;33947;46.804;134.252;2022-10-16T08:30:36;6.38;;;2.70;;
46845;SDS011;33947;46.804;134.252;2022-10-16T08:33:41;6.82;;;2.58;;
46845;SDS011;33947;46.804;134.252;2022-10-16T08:36:48;5.10;;;2.92;;
46845;SDS011;33947;46.804;134.252;2022-10-16T08:39:53;7.30;;;3.20;;
46845;SDS011;33947;46.804;134.252;2022-10-16T08:46:15;15.70;;;5.78;;
46845;SDS011;33947;46.804;134.252;2022-10-16T08:53:05;17.77;;;6.40;;
46845;SDS011;33947;46.804;134.252;2022-10-16T08:56:10;21.27;;;11.73;;
46845;SDS011;33947;46.804;134.252;2022-10-16T08:59:14;26.30;;;13.93;;
46845;SDS011;33947;46.804;134.252;2022-10-16T09:15:28;45.58;;;15.70;;
46845;SDS011;33947;46.804;134.252;2022-10-16T09:18:52;44.88;;;18.85;;
46845;SDS011;33947;46.804;134.252;2022-10-16T09:22:16;44.25;;;18.75;;
46845;SDS011;33947;46.804;134.252;2022-10-16T09:25:21;29.75;;;16.23;;
46845;SDS011;33947;46.804;134.252;2022-10-16T09:28:26;24.65;;;10.90;;
46845;SDS011;33947;46.804;134.252;2022-10-16T09:31:31;17.73;;;6.13;;
46845;SDS011;33947;46.804;134.252;2022-10-16T09:34:37;58.08;;;14.05;;
46845;SDS011;33947;46.804;134.252;2022-10-16T09:37:51;31.88;;;12.15;;
46845;SDS011;33947;46.804;134.252;2022-10-16T09:41:01;38.50;;;12.10;;
46845;SDS011;33947;46.804;134.252;2022-10-16T09:44:23;44.00;;;14.88;;
46845;SDS011;33947;46.804;134.252;2022-10-16T09:47:32;47.80;;;10.85;;
46845;SDS011;33947;46.804;134.252;2022-10-16T09:50:58;41.10;;;10.40;;
46845;SDS011;33947;46.804;134.252;2022-10-16T09:57:14;51.72;;;23.60;;
46845;SDS011;33947;46.804;134.252;2022-10-16T10:00:19;137.23;;;60.58;;
46845;SDS011;33947;46.804;134.252;2022-10-16T10:03:36;154.82;;;67.60;;
46845;SDS011;33947;46.804;134.252;2022-10-16T10:06:44;134.80;;;54.83;;
46845;SDS011;33947;46.804;134.252;2022-10-16T10:09:55;98.53;;;40.25;;
46845;SDS011;33947;46.804;134.252;2022-10-16T10:13:01;104.32;;;42.30;;
46845;SDS011;33947;46.804;134.252;2022-10-16T10:16:05;114.90;;;46.95;;
46845;SDS011;33947;46.804;134.252;2022-10-16T10:19:16;116.25;;;50.30;;
46845;SDS011;33947;46.804;134.252;2022-10-16T10:22:25;76.38;;;32.70;;
46845;SDS011;33947;46.804;134.252;2022-10-16T10:39:11;106.45;;;41.88;;
46845;SDS011;33947;46.804;134.252;2022-10-16T10:42:28;119.25;;;46.38;;
46845;SDS011;33947;46.804;134.252;2022-10-16T10:45:58;81.20;;;25.42;;
46845;SDS011;33947;46.804;134.252;2022-10-16T10:49:11;67.07;;;30.52;;
46845;SDS011;33947;46.804;134.252;2022-10-16T10:55:43;125.03;;;38.30;;
46845;SDS011;33947;46.804;134.252;2022-10-16T11:05:28;104.68;;;40.67;;
46845;SDS011;33947;46.804;134.252;2022-10-16T11:08:48;95.57;;;39.13;;
46845;SDS011;33947;46.804;134.252;2022-10-16T11:12:21;108.50;;;40.55;;
46845;SDS011;33947;46.804;134.252;2022-10-16T11:15:32;126.88;;;47.45;;
46845;SDS011;33947;46.804;134.252;2022-10-16T11:25:32;120.00;;;46.25;;
46845;SDS011;33947;46.804;134.252;2022-10-16T11:28:38;101.63;;;40.33;;
46845;SDS011;33947;46.804;134.252;2022-10-16T11:31:54;78.97;;;32.75;;
46845;SDS011;33947;46.804;134.252;2022-10-16T11:35:10;82.30;;;29.83;;
46845;SDS011;33947;46.804;134.252;2022-10-16T11:38:27;78.32;;;29.50;;
46845;SDS011;33947;46.804;134.252;2022-10-16T11:44:57;120.85;;;43.65;;
46845;SDS011;33947;46.804;134.252;2022-10-16T11:54:54;173.88;;;56.05;;
46845;SDS011;33947;46.804;134.252;2022-10-16T11:58:04;181.70;;;54.63;;
46845;SDS011;33947;46.804;134.252;2022-10-16T12:01:38;168.70;;;52.72;;
46845;SDS011;33947;46.804;134.252;2022-10-16T12:04:45;148.80;;;47.08;;
46845;SDS011;33947;46.804;134.252;2022-10-16T12:17:59;64.22;;;25.50;;
46845;SDS011;33947;46.804;134.252;2022-10-16T12:21:04;63.42;;;25.25;;
46845;SDS011;33947;46.804;134.252;2022-10-16T12:24:27;60.65;;;23.17;;
46845;SDS011;33947;46.804;134.252;2022-10-16T12:27:36;71.72;;;27.88;;
46845;SDS011;33947;46.804;134.252;2022-10-16T12:30:41;80.65;;;29.85;;
46845;SDS011;33947;46.804;134.252;2022-10-16T12:33:59;80.93;;;27.80;;
46845;SDS011;33947;46.804;134.252;2022-10-16T12:37:10;68.40;;;26.38;;
46845;SDS011;33947;46.804;134.252;2022-10-16T12:40:37;73.10;;;24.40;;
46845;SDS011;33947;46.804;134.252;2022-10-16T12:43:43;55.08;;;22.17;;
46845;SDS011;33947;46.804;134.252;2022-10-16T12:46:49;59.53;;;24.17;;
46845;SDS011;33947;46.804;134.252;2022-10-16T12:49:54;64.75;;;24.17;;
46845;SDS011;33947;46.804;134.252;2022-10-16T12:52:59;83.35;;;28.00;;
46845;SDS011;33947;46.804;134.252;2022-10-16T13:06:07;55.75;;;21.35;;
46845;SDS011;33947;46.804;134.252;2022-10-16T13:23:02;60.20;;;20.25;;
46845;SDS011;33947;46.804;134.252;2022-10-16T13:29:41;102.75;;;34.67;;
46845;SDS011;33947;46.804;134.252;2022-10-16T13:32:46;141.82;;;44.75;;
46845;SDS011;33947;46.804;134.252;2022-10-16T13:35:54;104.25;;;35.72;;
46845;SDS011;33947;46.804;134.252;2022-10-16T13:39:14;83.90;;;32.35;;
46845;SDS011;33947;46.804;134.252;2022-10-16T13:42:25;165.43;;;48.47;;
46845;SDS011;33947;46.804;134.252;2022-10-16T13:45:31;79.20;;;28.30;;
46845;SDS011;33947;46.804;134.252;2022-10-16T13:48:36;81.75;;;27.95;;
46845;SDS011;33947;46.804;134.252;2022-10-16T13:51:40;65.38;;;26.05;;
46845;SDS011;33947;46.804;134.252;2022-10-16T13:54:45;70.47;;;25.67;;
46845;SDS011;33947;46.804;134.252;2022-10-16T13:57:51;98.68;;;33.47;;
46845;SDS011;33947;46.804;134.252;2022-10-16T14:00:57;50.58;;;20.80;;
46845;SDS011;33947;46.804;134.252;2022-10-16T14:04:20;144.20;;;44.08;;
46845;SDS011;33947;46.804;134.252;2022-10-16T14:07:29;126.90;;;39.60;;
46845;SDS011;33947;46.804;134.252;2022-10-16T14:10:36;72.43;;;25.98;;
46845;SDS011;33947;46.804;134.252;2022-10-16T14:13:43;139.30;;;43.65;;
46845;SDS011;33947;46.804;134.252;2022-10-16T14:16:50;82.70;;;28.48;;
46845;SDS011;33947;46.804;134.252;2022-10-16T14:19:56;119.95;;;37.00;;
46845;SDS011;33947;46.804;134.252;2022-10-16T14:26:23;72.20;;;24.65;;
46845;SDS011;33947;46.804;134.252;2022-10-16T14:29:30;74.40;;;26.40;;
46845;SDS011;33947;46.804;134.252;2022-10-16T14:32:34;62.67;;;22.17;;
46845;SDS011;33947;46.804;134.252;2022-10-16T14:35:39;47.42;;;17.60;;
46845;SDS011;33947;46.804;134.252;2022-10-16T14:39:05;49.13;;;18.05;;
46845;SDS011;33947;46.804;134.252;2022-10-16T14:42:18;34.80;;;14.18;;
46845;SDS011;33947;46.804;134.252;2022-10-16T14:45:29;39.45;;;13.90;;
46845;SDS011;33947;46.804;134.252;2022-10-16T14:48:35;33.33;;;12.60;;
46845;SDS011;33947;46.804;134.252;2022-10-16T14:51:40;28.80;;;12.00;;
46845;SDS011;33947;46.804;134.252;2022-10-16T14:54:48;24.33;;;10.90;;
46845;SDS011;33947;46.804;134.252;2022-10-16T14:57:53;28.50;;;13.65;;
46845;SDS011;33947;46.804;134.252;2022-10-16T15:01:02;26.63;;;13.77;;
46845;SDS011;33947;46.804;134.252;2022-10-16T15:04:10;52.78;;;17.88;;
46845;SDS011;33947;46.804;134.252;2022-10-16T15:07:16;33.75;;;13.25;;
46845;SDS011;33947;46.804;134.252;2022-10-16T15:10:21;31.83;;;11.40;;
46845;SDS011;33947;46.804;134.252;2022-10-16T15:13:28;31.50;;;12.27;;
46845;SDS011;33947;46.804;134.252;2022-10-16T15:16:33;40.13;;;14.32;;
46845;SDS011;33947;46.804;134.252;2022-10-16T15:19:37;29.85;;;11.73;;
46845;SDS011;33947;46.804;134.252;2022-10-16T15:22:42;24.98;;;11.55;;
46845;SDS011;33947;46.804;134.252;2022-10-16T15:28:52;30.33;;;11.40;;
46845;SDS011;33947;46.804;134.252;2022-10-16T15:31:57;49.08;;;15.45;;
46845;SDS011;33947;46.804;134.252;2022-10-16T15:35:02;37.28;;;12.27;;
46845;SDS011;33947;46.804;134.252;2022-10-16T15:38:09;34.17;;;12.52;;
46845;SDS011;33947;46.804;134.252;2022-10-16T15:41:16;26.58;;;10.30;;
46845;SDS011;33947;46.804;134.252;2022-10-16T15:44:20;27.08;;;10.52;;
46845;SDS011;33947;46.804;134.252;2022-10-16T15:47:33;72.93;;;17.83;;
46845;SDS011;33947;46.804;134.252;2022-10-16T15:50:38;383.00;;;63.78;;
46845;SDS011;33947;46.804;134.252;2022-10-16T15:53:43;275.63;;;49.20;;
46845;SDS011;33947;46.804;134.252;2022-10-16T15:56:49;94.28;;;23.83;;
46845;SDS011;33947;46.804;134.252;2022-10-16T16:02:59;35.22;;;12.88;;
46845;SDS011;33947;46.804;134.252;2022-10-16T16:06:05;48.38;;;17.08;;
46845;SDS011;33947;46.804;134.252;2022-10-16T16:09:14;50.40;;;17.38;;
46845;SDS011;33947;46.804;134.252;2022-10-16T16:12:19;41.78;;;14.05;;
46845;SDS011;33947;46.804;134.252;2022-10-16T16:15:23;37.55;;;14.32;;
46845;SDS011;33947;46.804;134.252;2022-10-16T16:18:27;44.00;;;15.43;;
46845;SDS011;33947;46.804;134.252;2022-10-16T16:21:32;105.13;;;31.48;;
46845;SDS011;33947;46.804;134.252;2022-10-16T16:24:37;121.72;;;34.65;;
46845;SDS011;33947;46.804;134.252;2022-10-16T16:27:43;51.97;;;17.73;;
46845;SDS011;33947;46.804;134.252;2022-10-16T16:30:50;84.60;;;26.87;;
46845;SDS011;33947;46.804;134.252;2022-10-16T16:33:55;71.18;;;24.05;;
46845;SDS011;33947;46.804;134.252;2022-10-16T16:37:01;29.27;;;13.55;;
46845;SDS011;33947;46.804;134.252;2022-10-16T16:40:05;54.00;;;18.15;;
46845;SDS011;33947;46.804;134.252;2022-10-16T16:43:10;29.30;;;11.40;;
46845;SDS011;33947;46.804;134.252;2022-10-16T16:46:15;31.98;;;12.93;;
46845;SDS011;33947;46.804;134.252;2022-10-16T16:49:19;24.40;;;10.05;;
46845;SDS011;33947;46.804;134.252;2022-10-16T16:52:24;22.52;;;10.13;;
46845;SDS011;33947;46.804;134.252;2022-10-16T16:55:29;32.40;;;11.57;;
46845;SDS011;33947;46.804;134.252;2022-10-16T16:58:35;66.55;;;23.23;;
46845;SDS011;33947;46.804;134.252;2022-10-16T17:01:39;129.80;;;37.33;;
46845;SDS011;33947;46.804;134.252;2022-10-16T17:04:44;37.55;;;15.05;;
46845;SDS011;33947;46.804;134.252;2022-10-16T17:07:49;28.80;;;12.70;;
46845;SDS011;33947;46.804;134.252;2022-10-16T17:10:53;20.73;;;9.43;;
46845;SDS011;33947;46.804;134.252;2022-10-16T17:13:58;25.70;;;10.52;;
46845;SDS011;33947;46.804;134.252;2022-10-16T17:17:04;24.48;;;9.70;;
46845;SDS011;33947;46.804;134.252;2022-10-16T17:20:10;26.13;;;9.10;;
46845;SDS011;33947;46.804;134.252;2022-10-16T17:23:15;25.55;;;10.88;;
46845;SDS011;33947;46.804;134.252;2022-10-16T17:26:21;37.30;;;13.57;;
46845;SDS011;33947;46.804;134.252;2022-10-16T17:29:25;47.55;;;18.52;;
46845;SDS011;33947;46.804;134.252;2022-10-16T17:32:29;54.67;;;21.02;;
46845;SDS011;33947;46.804;134.252;2022-10-16T17:35:39;57.63;;;22.48;;
46845;SDS011;33947;46.804;134.252;2022-10-16T17:38:46;42.85;;;16.38;;
46845;SDS011;33947;46.804;134.252;2022-10-16T17:41:51;46.67;;;16.80;;
46845;SDS011;33947;46.804;134.252;2022-10-16T17:44:56;42.33;;;15.88;;
46845;SDS011;33947;46.804;134.252;2022-10-16T17:48:00;99.20;;;32.88;;
46845;SDS011;33947;46.804;134.252;2022-10-16T17:51:05;71.80;;;25.45;;
46845;SDS011;33947;46.804;134.252;2022-10-16T17:54:11;55.67;;;21.17;;
46845;SDS011;33947;46.804;134.252;2022-10-16T17:57:17;53.83;;;20.10;;
46845;SDS011;33947;46.804;134.252;2022-10-16T18:03:27;38.53;;;14.55;;
46845;SDS011;33947;46.804;134.252;2022-10-16T18:06:31;33.13;;;13.60;;
46845;SDS011;33947;46.804;134.252;2022-10-16T18:09:37;24.70;;;10.45;;
46845;SDS011;33947;46.804;134.252;2022-10-16T18:13:01;30.52;;;10.38;;
46845;SDS011;33947;46.804;134.252;2022-10-16T18:16:07;35.58;;;13.88;;
46845;SDS011;33947;46.804;134.252;2022-10-16T18:19:13;61.97;;;20.10;;
46845;SDS011;33947;46.804;134.252;2022-10-16T18:22:18;42.70;;;16.25;;
46845;SDS011;33947;46.804;134.252;2022-10-16T18:25:22;41.25;;;13.65;;
46845;SDS011;33947;46.804;134.252;2022-10-16T18:28:27;29.45;;;11.35;;
46845;SDS011;33947;46.804;134.252;2022-10-16T18:31:32;44.75;;;15.82;;
46845;SDS011;33947;46.804;134.252;2022-10-16T18:34:41;70.82;;;26.17;;
46845;SDS011;33947;46.804;134.252;2022-10-16T18:37:46;76.18;;;26.17;;
46845;SDS011;33947;46.804;134.252;2022-10-16T18:40:50;37.50;;;9.60;;
46845;SDS011;33947;46.804;134.252;2022-10-16T18:43:55;31.07;;;12.10;;
46845;SDS011;33947;46.804;134.252;2022-10-16T18:47:00;31.58;;;11.48;;
46845;SDS011;33947;46.804;134.252;2022-10-16T18:50:05;22.48;;;10.23;;
46845;SDS011;33947;46.804;134.252;2022-10-16T18:53:13;23.48;;;8.52;;
46845;SDS011;33947;46.804;134.252;2022-10-16T18:56:19;29.15;;;10.02;;
46845;SDS011;33947;46.804;134.252;2022-10-16T18:59:25;34.53;;;14.68;;
46845;SDS011;33947;46.804;134.252;2022-10-16T19:02:30;18.98;;;8.68;;
46845;SDS011;33947;46.804;134.252;2022-10-16T19:05:40;19.70;;;7.95;;
46845;SDS011;33947;46.804;134.252;2022-10-16T19:08:44;18.67;;;6.93;;
46845;SDS011;33947;46.804;134.252;2022-10-16T19:11:52;20.05;;;8.25;;
46845;SDS011;33947;46.804;134.252;2022-10-16T19:14:56;14.27;;;6.25;;
46845;SDS011;33947;46.804;134.252;2022-10-16T19:18:04;12.38;;;5.90;;
46845;SDS011;33947;46.804;134.252;2022-10-16T19:21:09;10.52;;;5.00;;
46845;SDS011;33947;46.804;134.252;2022-10-16T19:24:15;19.75;;;6.35;;
46845;SDS011;33947;46.804;134.252;2022-10-16T19:27:20;10.27;;;5.10;;
46845;SDS011;33947;46.804;134.252;2022-10-16T19:30:24;11.73;;;4.85;;
46845;SDS011;33947;46.804;134.252;2022-10-16T19:33:28;10.75;;;4.32;;
46845;SDS011;33947;46.804;134.252;2022-10-16T19:36:34;12.60;;;6.40;;
46845;SDS011;33947;46.804;134.252;2022-10-16T19:39:41;14.07;;;6.00;;
46845;SDS011;33947;46.804;134.252;2022-10-16T19:42:46;11.30;;;5.03;;
46845;SDS011;33947;46.804;134.252;2022-10-16T19:45:51;8.98;;;5.25;;
46845;SDS011;33947;46.804;134.252;2022-10-16T19:48:56;10.35;;;4.03;;
46845;SDS011;33947;46.804;134.252;2022-10-16T19:52:03;22.17;;;7.50;;
46845;SDS011;33947;46.804;134.252;2022-10-16T19:55:08;15.13;;;7.68;;
46845;SDS011;33947;46.804;134.252;2022-10-16T19:58:13;21.05;;;8.20;;
46845;SDS011;33947;46.804;134.252;2022-10-16T20:01:17;16.40;;;6.78;;
46845;SDS011;33947;46.804;134.252;2022-10-16T20:04:21;17.33;;;8.02;;
46845;SDS011;33947;46.804;134.252;2022-10-16T20:07:26;21.77;;;7.80;;
46845;SDS011;33947;46.804;134.252;2022-10-16T20:10:35;22.33;;;7.95;;
46845;SDS011;33947;46.804;134.252;2022-10-16T20:13:40;21.80;;;7.85;;